createdAt,value
2023-01-12T00:02:23.003Z,1.00
2023-01-12T00:04:51.452Z,1.00
2023-01-12T00:07:21.142Z,1.00
2023-01-12T00:09:49.792Z,1.00
2023-01-12T00:12:18.235Z,1.00
2023-01-12T00:14:46.683Z,1.00
2023-01-12T00:17:18.031Z,1.00
2023-01-12T00:19:46.541Z,1.00
2023-01-12T00:22:15.619Z,1.00
2023-01-12T00:24:46.701Z,1.00
2023-01-12T00:27:17.796Z,1.00
2023-01-12T00:29:47.311Z,1.00
2023-01-12T00:32:18.982Z,1.00
2023-01-12T00:34:47.537Z,1.00
2023-01-12T00:37:16.715Z,1.00
2023-01-12T00:40:00.982Z,1.00
2023-01-12T00:42:48.213Z,1.00
2023-01-12T00:45:22.484Z,1.00
2023-01-12T00:47:51.317Z,1.00
2023-01-12T00:50:20.071Z,1.00
2023-01-12T00:52:48.561Z,1.00
2023-01-12T00:55:17.356Z,1.00
2023-01-12T00:57:47.146Z,1.00
2023-01-12T01:00:16.750Z,1.00
2023-01-12T01:02:45.657Z,1.00
2023-01-12T01:05:14.884Z,1.00
2023-01-12T01:07:44.126Z,2.30
2023-01-12T01:10:14.219Z,7.40
2023-01-12T01:12:43.281Z,10.70
2023-01-12T01:15:12.667Z,17.90
2023-01-12T01:17:42.444Z,23.60
2023-01-12T01:20:12.031Z,46.60
2023-01-12T01:22:40.446Z,49.00
2023-01-12T01:25:09.460Z,61.30
2023-01-12T01:27:38.320Z,60.40
2023-01-12T01:30:08.214Z,77.40
2023-01-12T01:32:36.720Z,96.80
2023-01-12T01:35:06.038Z,99.90
2023-01-12T01:37:34.472Z,99.90
2023-01-12T01:40:03.182Z,99.90
2023-01-12T01:42:31.725Z,99.90
2023-01-12T01:45:12.120Z,99.90
2023-01-12T01:47:50.488Z,99.90
2023-01-12T01:50:25.195Z,99.90
2023-01-12T01:53:08.883Z,99.90
2023-01-12T01:55:49.104Z,99.90
2023-01-12T01:58:25.660Z,99.90
2023-01-12T02:00:55.052Z,99.90
2023-01-12T02:03:25.854Z,99.90
2023-01-12T02:05:56.702Z,99.90
2023-01-12T02:08:33.364Z,99.90
2023-01-12T02:11:03.494Z,99.90
2023-01-12T02:13:51.374Z,99.90
2023-01-12T02:16:28.805Z,99.90
2023-01-12T02:19:18.891Z,99.90
2023-01-12T02:22:06.584Z,99.90
2023-01-12T02:24:53.346Z,99.90
2023-01-12T02:27:33.331Z,99.90
2023-01-12T02:30:32.336Z,99.90
2023-01-12T02:33:13.157Z,99.90
2023-01-12T02:35:50.377Z,99.90
2023-01-12T02:38:34.335Z,99.90
2023-01-12T02:41:18.129Z,99.90
2023-01-12T02:43:47.115Z,99.90
2023-01-12T02:46:29.542Z,99.90
2023-01-12T02:49:09.095Z,99.90
2023-01-12T02:51:49.199Z,99.90
2023-01-12T02:54:20.775Z,99.90
2023-01-12T02:57:01.008Z,99.90
2023-01-12T02:59:36.063Z,99.90
2023-01-12T03:02:17.629Z,99.90
2023-01-12T03:04:46.230Z,99.90
2023-01-12T03:07:35.564Z,99.90
2023-01-12T03:10:35.022Z,99.90
2023-01-12T03:13:08.396Z,99.90
2023-01-12T03:15:44.187Z,99.90
2023-01-12T03:18:34.316Z,99.90
2023-01-12T03:21:12.650Z,99.90
2023-01-12T03:23:49.324Z,99.90
2023-01-12T03:26:23.966Z,99.90
2023-01-12T03:29:00.118Z,99.90
2023-01-12T03:31:28.826Z,99.90
2023-01-12T03:33:57.357Z,98.20
2023-01-12T03:36:44.499Z,96.60
2023-01-12T03:39:22.702Z,93.00
2023-01-12T03:42:03.321Z,90.20
2023-01-12T03:44:53.065Z,88.00
2023-01-12T03:47:30.728Z,81.20
2023-01-12T03:50:01.714Z,82.70
2023-01-12T03:52:31.620Z,79.40
2023-01-12T03:55:01.751Z,72.30
2023-01-12T03:57:31.212Z,70.10
2023-01-12T04:00:01.989Z,70.70
2023-01-12T04:02:30.442Z,65.70
2023-01-12T04:04:59.730Z,60.20
2023-01-12T04:07:28.192Z,49.50
2023-01-12T04:09:57.935Z,46.60
2023-01-12T04:12:26.394Z,50.90
2023-01-12T04:14:54.849Z,50.30
2023-01-12T04:17:26.119Z,44.80
2023-01-12T04:19:54.595Z,45.90
2023-01-12T04:22:41.823Z,36.30
2023-01-12T04:25:14.375Z,37.80
2023-01-12T04:27:47.299Z,34.50
2023-01-12T04:30:17.866Z,33.60
2023-01-12T04:32:46.531Z,31.30
2023-01-12T04:35:15.402Z,28.80
2023-01-12T04:37:44.763Z,25.00
2023-01-12T04:40:15.607Z,22.60
2023-01-12T04:43:01.746Z,18.10
2023-01-12T04:45:32.320Z,19.30
2023-01-12T04:48:13.040Z,16.20
2023-01-12T04:50:42.619Z,26.00
2023-01-12T04:53:13.033Z,42.50
2023-01-12T04:55:44.056Z,62.80
2023-01-12T04:58:12.583Z,83.10
2023-01-12T05:00:41.052Z,92.00
2023-01-12T05:03:13.599Z,97.40
2023-01-12T05:05:42.334Z,96.80
2023-01-12T05:08:29.654Z,99.90
2023-01-12T05:11:00.739Z,99.90
2023-01-12T05:13:32.191Z,99.90
2023-01-12T05:16:10.378Z,99.90
2023-01-12T05:18:39.405Z,99.90
2023-01-12T05:21:07.873Z,99.90
2023-01-12T05:23:36.307Z,99.90
2023-01-12T05:26:08.863Z,99.90
2023-01-12T05:28:37.675Z,99.90
2023-01-12T05:31:09.251Z,99.90
2023-01-12T05:33:39.401Z,99.90
2023-01-12T05:36:10.110Z,99.90
2023-01-12T05:38:38.743Z,99.90
2023-01-12T05:41:08.327Z,99.90
2023-01-12T05:43:51.796Z,99.90
2023-01-12T05:46:25.556Z,99.90
2023-01-12T05:48:55.794Z,99.90
2023-01-12T05:51:25.585Z,99.90
2023-01-12T05:53:54.292Z,99.90
2023-01-12T05:56:28.635Z,99.90
2023-01-12T05:58:59.561Z,99.90
2023-01-12T06:01:29.341Z,99.90
2023-01-12T06:04:02.662Z,99.90
2023-01-12T06:06:32.854Z,99.90
2023-01-12T06:09:02.151Z,99.90
2023-01-12T06:11:49.466Z,99.90
2023-01-12T06:14:18.069Z,99.90
2023-01-12T06:16:46.524Z,99.90
2023-01-12T06:19:15.140Z,99.90
2023-01-12T06:21:43.720Z,99.90
2023-01-12T06:24:12.201Z,99.90
2023-01-12T06:26:40.956Z,99.90
2023-01-12T06:29:09.499Z,99.90
2023-01-12T06:31:39.610Z,99.90
2023-01-12T06:34:11.545Z,99.90
2023-01-12T06:36:40.837Z,99.90
2023-01-12T06:39:09.623Z,99.90
2023-01-12T06:41:56.351Z,99.90
2023-01-12T06:44:24.859Z,99.90
2023-01-12T06:46:53.313Z,99.90
2023-01-12T06:49:21.791Z,99.90
2023-01-12T06:51:52.145Z,99.90
2023-01-12T06:54:21.187Z,99.90
2023-01-12T06:56:49.903Z,99.90
2023-01-12T06:59:18.293Z,99.90
2023-01-12T07:01:46.841Z,99.90
2023-01-12T07:04:15.425Z,99.90
2023-01-12T07:06:44.089Z,99.90
2023-01-12T07:09:13.121Z,99.90
2023-01-12T07:11:41.619Z,99.90
2023-01-12T07:14:10.065Z,99.90
2023-01-12T07:16:38.542Z,99.90
2023-01-12T07:19:07.403Z,99.90
2023-01-12T07:21:35.915Z,99.90
2023-01-12T07:24:04.727Z,99.90
2023-01-12T07:26:33.295Z,99.90
2023-01-12T07:29:01.759Z,99.90
2023-01-12T07:31:30.348Z,99.90
2023-01-12T07:33:58.837Z,99.90
2023-01-12T07:36:27.293Z,99.90
2023-01-12T07:38:55.771Z,99.90
2023-01-12T07:41:42.764Z,99.90
2023-01-12T07:44:11.401Z,99.90
2023-01-12T07:46:40.080Z,99.90
2023-01-12T07:49:08.650Z,99.90
2023-01-12T07:51:37.618Z,99.90
2023-01-12T07:54:06.218Z,99.90
2023-01-12T07:56:34.649Z,99.90
2023-01-12T07:59:03.414Z,99.90
2023-01-12T08:01:33.633Z,99.90
2023-01-12T08:04:02.196Z,99.90
2023-01-12T08:06:31.012Z,99.90
2023-01-12T08:08:59.430Z,99.90
2023-01-12T08:11:27.946Z,99.90
2023-01-12T08:13:58.179Z,99.90
2023-01-12T08:16:42.648Z,99.90
2023-01-12T08:19:22.885Z,99.90
2023-01-12T08:21:59.825Z,99.90
2023-01-12T08:24:33.425Z,99.90
2023-01-12T08:27:04.560Z,99.90
2023-01-12T08:29:42.908Z,99.90
2023-01-12T08:32:14.078Z,99.90
2023-01-12T08:34:45.191Z,99.90
2023-01-12T08:37:17.425Z,99.90
2023-01-12T08:39:48.066Z,99.90
2023-01-12T08:42:16.557Z,99.90
2023-01-12T08:44:45.870Z,99.90
2023-01-12T08:47:20.170Z,99.90
2023-01-12T08:49:49.163Z,99.90
2023-01-12T08:52:17.805Z,99.90
2023-01-12T08:54:46.549Z,99.90
2023-01-12T08:57:17.023Z,99.90
2023-01-12T08:59:45.691Z,99.90
2023-01-12T09:02:15.606Z,99.90
2023-01-12T09:04:44.241Z,99.90
2023-01-12T09:07:13.833Z,99.90
2023-01-12T09:09:42.355Z,99.90
2023-01-12T09:12:10.840Z,99.90
2023-01-12T09:14:39.585Z,99.90
2023-01-12T09:17:08.752Z,99.90
2023-01-12T09:19:37.171Z,99.90
2023-01-12T09:22:05.653Z,99.90
2023-01-12T09:24:34.529Z,99.90
2023-01-12T09:27:03.138Z,99.90
2023-01-12T09:29:31.554Z,99.90
2023-01-12T09:32:00.145Z,99.90
2023-01-12T09:34:29.248Z,99.90
2023-01-12T09:37:00.404Z,99.90
2023-01-12T09:39:29.395Z,99.90
2023-01-12T09:42:18.188Z,99.90
2023-01-12T09:45:09.312Z,99.90
2023-01-12T09:47:40.771Z,99.90
2023-01-12T09:50:29.310Z,99.90
2023-01-12T09:53:27.318Z,99.90
2023-01-12T09:56:52.641Z,99.90
2023-01-12T09:59:53.717Z,99.90
2023-01-12T10:02:22.341Z,99.90
2023-01-12T10:04:52.992Z,99.90
2023-01-12T10:07:21.640Z,99.90
2023-01-12T10:09:50.473Z,99.90
2023-01-12T10:12:35.377Z,99.90
2023-01-12T10:15:21.778Z,99.90
2023-01-12T10:18:02.092Z,99.90
2023-01-12T10:20:40.823Z,99.90
2023-01-12T10:23:09.243Z,99.90
2023-01-12T10:25:50.138Z,99.90
2023-01-12T10:28:34.321Z,99.90
2023-01-12T10:31:04.724Z,99.90
2023-01-12T10:33:36.993Z,99.90
2023-01-12T10:36:16.574Z,99.90
2023-01-12T10:38:54.595Z,99.90
2023-01-12T10:41:24.730Z,99.90
2023-01-12T10:44:17.617Z,99.90
2023-01-12T10:47:09.355Z,99.90
2023-01-12T10:49:39.103Z,99.90
2023-01-12T10:52:31.799Z,99.90
2023-01-12T10:55:00.318Z,99.90
2023-01-12T10:57:28.795Z,99.90
2023-01-12T11:00:03.538Z,99.90
2023-01-12T11:02:44.908Z,99.90
2023-01-12T11:05:34.850Z,99.90
2023-01-12T11:08:03.914Z,99.90
2023-01-12T11:10:37.675Z,99.90
2023-01-12T11:13:31.275Z,99.90
2023-01-12T11:16:12.096Z,99.90
2023-01-12T11:19:06.052Z,99.90
2023-01-12T11:21:38.651Z,99.90
2023-01-12T11:24:11.543Z,99.90
2023-01-12T11:27:14.959Z,99.90
2023-01-12T11:30:06.394Z,99.90
2023-01-12T11:32:50.787Z,99.90
2023-01-12T11:35:38.020Z,99.90
2023-01-12T11:38:14.515Z,99.90
2023-01-12T11:40:44.652Z,99.90
2023-01-12T11:43:39.135Z,99.90
2023-01-12T11:46:32.686Z,99.90
2023-01-12T11:49:14.048Z,99.90
2023-01-12T11:51:43.591Z,99.90
2023-01-12T11:54:17.575Z,99.90
2023-01-12T11:57:04.679Z,99.90
2023-01-12T11:59:54.687Z,99.90
2023-01-12T12:02:33.817Z,99.90
2023-01-12T12:05:34.579Z,99.90
2023-01-12T12:08:18.283Z,99.90
2023-01-12T12:11:13.860Z,99.90
2023-01-12T12:14:05.199Z,99.90
2023-01-12T12:16:58.161Z,99.90
2023-01-12T12:19:55.942Z,99.90
2023-01-12T12:22:54.985Z,99.90
2023-01-12T12:25:53.187Z,99.90
2023-01-12T12:28:38.341Z,99.90
2023-01-12T12:31:24.932Z,99.90
2023-01-12T12:33:59.863Z,99.90
2023-01-12T12:36:31.306Z,99.90
2023-01-12T12:39:23.215Z,99.90
2023-01-12T12:42:15.723Z,99.90
2023-01-12T12:45:18.712Z,99.90
2023-01-12T12:48:08.173Z,99.90
2023-01-12T12:50:52.241Z,99.90
2023-01-12T12:53:26.882Z,99.90
2023-01-12T12:55:58.826Z,99.90
2023-01-12T12:58:30.694Z,99.90
2023-01-12T13:01:21.814Z,99.90
2023-01-12T13:03:52.994Z,99.90
2023-01-12T13:06:43.263Z,99.90
2023-01-12T13:09:15.891Z,99.90
2023-01-12T13:11:59.884Z,99.90
2023-01-12T13:14:40.464Z,99.90
2023-01-12T13:17:20.909Z,99.90
2023-01-12T13:20:10.708Z,99.90
2023-01-12T13:22:50.291Z,99.90
2023-01-12T13:25:22.989Z,99.90
2023-01-12T13:28:00.934Z,99.90
2023-01-12T13:30:32.307Z,99.90
2023-01-12T13:33:21.068Z,99.90
2023-01-12T13:35:49.817Z,99.90
2023-01-12T13:38:45.391Z,99.90
2023-01-12T13:41:18.699Z,99.90
2023-01-12T13:43:49.985Z,99.90
2023-01-12T13:46:32.324Z,99.90
2023-01-12T13:49:01.588Z,99.90
2023-01-12T13:51:49.876Z,99.90
2023-01-12T13:54:18.417Z,99.90
2023-01-12T13:56:59.126Z,99.70
2023-01-12T13:59:28.898Z,99.90
2023-01-12T14:01:58.130Z,99.20
2023-01-12T14:04:56.168Z,99.90
2023-01-12T14:07:50.336Z,98.30
2023-01-12T14:10:34.032Z,95.50
2023-01-12T14:13:35.004Z,94.00
2023-01-12T14:16:28.910Z,94.00
2023-01-12T14:18:57.712Z,90.00
2023-01-12T14:21:33.747Z,79.90
2023-01-12T14:24:21.930Z,88.20
2023-01-12T14:26:50.904Z,83.30
2023-01-12T14:29:19.364Z,78.60
2023-01-12T14:31:53.843Z,76.60
2023-01-12T14:34:36.236Z,71.20
2023-01-12T14:37:24.235Z,77.90
2023-01-12T14:39:52.741Z,78.30
2023-01-12T14:42:40.488Z,71.70
2023-01-12T14:45:39.316Z,61.30
2023-01-12T14:48:24.542Z,56.00
2023-01-12T14:51:19.428Z,53.70
2023-01-12T14:53:49.840Z,51.00
2023-01-12T14:56:23.988Z,48.90
2023-01-12T14:58:52.968Z,42.10
2023-01-12T15:01:33.198Z,42.70
2023-01-12T15:04:02.139Z,44.40
2023-01-12T15:06:30.721Z,42.60
2023-01-12T15:09:01.505Z,42.30
2023-01-12T15:11:36.588Z,34.90
2023-01-12T15:14:07.375Z,33.20
2023-01-12T15:16:55.417Z,38.90
2023-01-12T15:19:42.285Z,49.60
2023-01-12T15:22:29.496Z,50.90
2023-01-12T15:25:16.326Z,26.80
2023-01-12T15:27:44.743Z,13.70
2023-01-12T15:30:13.585Z,13.10
2023-01-12T15:32:48.526Z,13.60
2023-01-12T15:35:23.266Z,10.30
2023-01-12T15:37:53.751Z,11.40
2023-01-12T15:40:23.016Z,13.00
2023-01-12T15:42:53.228Z,14.70
2023-01-12T15:45:35.661Z,17.10
2023-01-12T15:48:05.454Z,15.60
2023-01-12T15:50:35.759Z,16.00
2023-01-12T15:53:04.451Z,16.60
2023-01-12T15:55:36.821Z,16.20
2023-01-12T15:58:05.342Z,13.90
2023-01-12T16:00:33.896Z,17.60
2023-01-12T16:03:02.777Z,18.10
2023-01-12T16:05:31.210Z,20.80
2023-01-12T16:07:59.703Z,27.40
2023-01-12T16:10:31.528Z,21.20
2023-01-12T16:13:02.684Z,18.30
2023-01-12T16:15:32.387Z,19.90
2023-01-12T16:18:00.815Z,24.60
2023-01-12T16:20:29.449Z,27.30
2023-01-12T16:22:58.211Z,25.70
2023-01-12T16:25:26.841Z,36.20
2023-01-12T16:28:01.339Z,40.60
2023-01-12T16:30:29.795Z,48.70
2023-01-12T16:32:59.918Z,42.80
2023-01-12T16:35:28.887Z,52.80
2023-01-12T16:37:57.291Z,61.00
2023-01-12T16:40:25.938Z,86.30
2023-01-12T16:42:54.401Z,81.80
2023-01-12T16:45:22.809Z,95.10
2023-01-12T16:47:51.211Z,97.90
2023-01-12T16:50:19.692Z,99.90
2023-01-12T16:52:48.582Z,99.90
2023-01-12T16:55:17.072Z,99.90
2023-01-12T16:57:45.936Z,99.90
2023-01-12T17:00:15.675Z,99.90
2023-01-12T17:02:44.277Z,99.90
2023-01-12T17:05:13.047Z,99.90
2023-01-12T17:07:41.701Z,99.90
2023-01-12T17:10:10.636Z,99.90
2023-01-12T17:12:39.696Z,99.90
2023-01-12T17:15:23.617Z,99.90
2023-01-12T17:17:52.745Z,99.90
2023-01-12T17:20:21.486Z,99.90
2023-01-12T17:22:50.090Z,99.90
2023-01-12T17:25:18.773Z,99.90
2023-01-12T17:27:47.626Z,99.90
2023-01-12T17:30:16.452Z,99.90
2023-01-12T17:32:44.916Z,99.90
2023-01-12T17:35:15.556Z,99.90
2023-01-12T17:37:44.580Z,99.90
2023-01-12T17:40:13.346Z,99.90
2023-01-12T17:43:00.141Z,99.90
2023-01-12T17:45:28.654Z,99.90
2023-01-12T17:47:57.512Z,99.90
2023-01-12T17:50:26.808Z,99.90
2023-01-12T17:52:55.860Z,99.90
2023-01-12T17:55:24.311Z,99.90
2023-01-12T17:57:52.734Z,99.90
2023-01-12T18:00:21.557Z,99.90
2023-01-12T18:02:51.296Z,99.90
2023-01-12T18:05:19.746Z,99.90
2023-01-12T18:07:48.293Z,99.90
2023-01-12T18:10:17.226Z,96.80
2023-01-12T18:12:45.652Z,95.60
2023-01-12T18:15:14.135Z,86.30
2023-01-12T18:17:42.706Z,78.60
2023-01-12T18:20:11.632Z,65.10
2023-01-12T18:22:40.270Z,78.20
2023-01-12T18:25:09.038Z,82.40
2023-01-12T18:27:37.461Z,79.20
2023-01-12T18:30:07.324Z,82.70
2023-01-12T18:32:35.747Z,80.00
2023-01-12T18:35:04.684Z,67.60
2023-01-12T18:37:33.196Z,63.40
2023-01-12T18:40:01.734Z,55.00
2023-01-12T18:42:48.355Z,33.10
2023-01-12T18:45:20.035Z,29.80
2023-01-12T18:48:06.802Z,27.30
2023-01-12T18:50:53.434Z,17.20
2023-01-12T18:53:26.582Z,19.80
2023-01-12T18:55:57.908Z,12.20
2023-01-12T18:58:30.672Z,13.50
2023-01-12T19:01:07.107Z,14.60
2023-01-12T19:03:37.146Z,7.60
2023-01-12T19:06:29.334Z,2.70
2023-01-12T19:09:16.056Z,1.00
2023-01-12T19:11:44.463Z,2.20
2023-01-12T19:14:31.171Z,1.00
2023-01-12T19:17:17.774Z,1.00
2023-01-12T19:19:46.731Z,1.00
2023-01-12T19:22:33.266Z,6.60
2023-01-12T19:25:20.187Z,10.20
2023-01-12T19:28:07.009Z,25.40
2023-01-12T19:30:41.514Z,21.70
2023-01-12T19:33:11.649Z,19.90
2023-01-12T19:35:41.715Z,19.30
2023-01-12T19:38:11.006Z,14.90
2023-01-12T19:40:54.526Z,5.10
2023-01-12T19:43:27.052Z,1.00
2023-01-12T19:46:02.086Z,1.00
2023-01-12T19:48:33.810Z,1.00
2023-01-12T19:51:11.264Z,1.00
2023-01-12T19:53:41.213Z,1.00
2023-01-12T19:56:14.034Z,1.00
2023-01-12T19:58:43.583Z,1.00
2023-01-12T20:01:20.045Z,1.00
2023-01-12T20:03:48.827Z,1.00
2023-01-12T20:06:18.054Z,1.00
2023-01-12T20:08:46.624Z,1.00
2023-01-12T20:11:15.431Z,1.00
2023-01-12T20:13:43.943Z,1.00
2023-01-12T20:16:13.872Z,1.00
2023-01-12T20:18:44.365Z,1.00
2023-01-12T20:21:14.378Z,1.00
2023-01-12T20:23:42.803Z,1.00
2023-01-12T20:26:13.399Z,1.00
2023-01-12T20:28:41.945Z,1.00
2023-01-12T20:31:16.673Z,1.00
2023-01-12T20:33:45.576Z,1.00
2023-01-12T20:36:18.630Z,1.00
2023-01-12T20:38:48.198Z,1.00
2023-01-12T20:41:16.619Z,1.00
2023-01-12T20:43:45.265Z,1.00
2023-01-12T20:46:15.970Z,1.00
2023-01-12T20:48:45.674Z,1.00
2023-01-12T20:51:17.002Z,1.00
2023-01-12T20:53:45.966Z,1.00
2023-01-12T20:56:14.379Z,1.00
2023-01-12T20:58:42.835Z,1.00
2023-01-12T21:01:13.034Z,1.00
2023-01-12T21:03:41.739Z,1.00
2023-01-12T21:06:15.565Z,1.00
2023-01-12T21:08:45.534Z,1.00
2023-01-12T21:11:18.115Z,1.00
2023-01-12T21:13:47.305Z,1.00
2023-01-12T21:16:18.965Z,1.00
2023-01-12T21:18:47.726Z,1.00
2023-01-12T21:21:16.218Z,1.00
2023-01-12T21:23:44.703Z,1.00
2023-01-12T21:26:13.167Z,1.00
2023-01-12T21:28:42.235Z,1.00
2023-01-12T21:31:13.002Z,1.00
2023-01-12T21:33:41.754Z,1.00
2023-01-12T21:36:13.673Z,1.00
2023-01-12T21:38:42.613Z,1.00
2023-01-12T21:41:13.189Z,1.00
2023-01-12T21:43:41.928Z,1.00
2023-01-12T21:46:13.531Z,1.00
2023-01-12T21:48:42.060Z,1.00
2023-01-12T21:51:13.860Z,1.00
2023-01-12T21:53:45.062Z,1.00
2023-01-12T21:56:14.462Z,1.00
2023-01-12T21:58:42.969Z,1.00
2023-01-12T22:01:16.111Z,1.00
2023-01-12T22:03:45.905Z,1.00
2023-01-12T22:06:15.238Z,1.00
2023-01-12T22:08:44.231Z,1.00
2023-01-12T22:11:16.291Z,1.00
2023-01-12T22:13:45.106Z,1.00
2023-01-12T22:16:16.371Z,1.00
2023-01-12T22:18:48.361Z,1.00
2023-01-12T22:21:18.134Z,1.00
2023-01-12T22:23:46.712Z,1.00
2023-01-12T22:26:16.796Z,1.00
2023-01-12T22:28:48.412Z,1.00
2023-01-12T22:31:22.364Z,1.00
2023-01-12T22:34:04.658Z,1.00
2023-01-12T22:36:35.415Z,1.00
2023-01-12T22:39:03.877Z,1.00
2023-01-12T22:41:32.281Z,1.00
2023-01-12T22:44:01.734Z,1.00
2023-01-12T22:46:30.165Z,1.00
2023-01-12T22:49:02.523Z,1.00
2023-01-12T22:51:31.199Z,1.00
2023-01-12T22:54:00.101Z,1.00
2023-01-12T22:56:28.870Z,1.00
2023-01-12T22:58:57.565Z,1.00
2023-01-12T23:01:26.810Z,1.00
2023-01-12T23:03:59.147Z,1.00
2023-01-12T23:06:28.078Z,1.00
2023-01-12T23:08:56.531Z,1.00
2023-01-12T23:11:27.313Z,1.00
2023-01-12T23:13:55.885Z,1.00
2023-01-12T23:16:25.216Z,1.00
2023-01-12T23:18:55.939Z,1.00
2023-01-12T23:21:27.832Z,1.00
2023-01-12T23:23:58.830Z,1.00
2023-01-12T23:26:31.880Z,1.00
2023-01-12T23:29:01.771Z,1.00
2023-01-12T23:31:33.042Z,3.10
2023-01-12T23:34:02.164Z,4.90
2023-01-12T23:36:31.728Z,12.20
2023-01-12T23:39:02.665Z,18.60
2023-01-12T23:41:32.956Z,28.30
2023-01-12T23:44:04.067Z,34.60
2023-01-12T23:46:37.677Z,49.20
2023-01-12T23:49:06.534Z,56.60
2023-01-12T23:51:37.063Z,47.40
2023-01-12T23:54:05.668Z,62.30
2023-01-12T23:56:35.488Z,73.60
2023-01-12T23:59:04.059Z,80.70
